SKPE/PEI METAR and TAF weather

Enter ICAO airport designator
Station Type Date Time Source
SKPE METAR 2020/11/27 15:00 UTC NOAA

SKPE 271500Z 33004KT 4000 BR BKN007 SCT080 21/19 A3010


Station Type Date Time Source
SKPE Decoded METAR 2020/11/27 15:00 UTC NOAA

Pereira / Matecana, Colombia (SKPE) 04-49N 075-44W 1342M
Nov 27, 2020 - 10:00 AM EST / 2020.11.27 1500 UTC
Wind: from the NNW (330 degrees) at 5 MPH (4 KT):0
Visibility: 2 mile(s):0
Sky conditions: mostly cloudy
Weather: mist
Temperature: 69 F (21 C)
Dew Point: 66 F (19 C)
Relative Humidity: 88%
Pressure (altimeter): 30.1 in. Hg (1019 hPa)
ob: SKPE 271500Z 33004KT 4000 BR BKN007 SCT080 21/19 A3010
cycle: 15

Station Type Date Time Source
SKPE TAF 2020/11/27 12:51 UTC NOAA

TAF SKPE 271030Z 2712/2812 VRB03KT 9999 SCT012 SCT080
TEMPO 2712/2714 8000 BCFG SCT010
BECMG 2715/2717 26008KT PROB30
TEMPO 2715/2720 3000 RADZ BKN012
BECMG 2800/2802 VRB03KT FEW020 SCT080 TX28/2719Z TN17/2811Z

Example: see airport list